• Join FlightAware (Why Join?)
  • Login
  • US Flag 
 
09:27PM EST


 

Airport Tracker/Info


-or-


 

Live Flight TrackerFlight Track Log ✈ XOJ552 ✈ 19-Oct-2013 ✈ KTEB - KSTS

Flight Track Log - Related Links

Times and Time Zones

All times are in EDT time to prevent confusion due to time zone crossing. See the XOJ552 flight status page for this flight to view local times or setup timezone preferences in your user account.

Time Position Orientation Groundspeed Altitude Reporting Facility
EDT Latitude Longitude Course Direction KTS MPH feet Rate Location/Type
12:34PM 40.8167 -74.1333 287° West 199 229 1,400  Level New York TRACON
12:35PM 40.8167 -74.2000 270° West 218 251 3,200 2,700 Climbing New York TRACON
12:36PM 40.8167 -74.3000 270° West 267 307 6,900 3,780 Climbing New York TRACON
12:37PM 40.8817 -74.3775 318° Northwest 299 344 11,800 3,600 Climbing New York Center
12:38PM 40.9456 -74.4606 316° Northwest 294 338 15,100 2,820 Climbing New York Center
12:39PM 40.9978 -74.9426 287° West  Level Estimated
12:39PM 41.0058 -74.5353 317° Northwest 317 365 17,500  Level New York Center
12:40PM 41.0797 -74.6275 317° Northwest 337 388 20,300 2,820 Climbing New York Center
12:41PM 41.1456 -74.7167 314° West 344 396 23,200 2,520 Climbing New York Center
12:42PM 41.1919 -74.8242 300° West 337 388 25,400 2,460 Climbing New York Center
12:43PM 41.2461 -74.9461 301° West 344 396 28,200 2,280 Climbing New York Center
12:44PM 41.2922 -75.0536 300° West 344 396 30,000 1,500 Climbing New York Center
12:45PM 41.3422 -75.1703 300° West 349 402 31,300 1,260 Climbing New York Center
12:46PM 41.3939 -75.2897 300° West 362 417 32,600 1,500 Climbing New York Center
12:47PM 41.4453 -75.4122 299° West 373 429 34,300 1,800 Climbing New York Center
12:48PM 41.4886 -75.5314 296° West 373 429 36,200 1,740 Climbing New York Center
12:49PM 41.5231 -75.6531 291° West 358 412 37,800 1,200 Climbing New York Center
12:50PM 41.5581 -75.7639 293° West 351 404 38,700 780 Climbing New York Center
12:51PM 41.5903 -75.8856 290° West 346 398 39,400 600 Climbing New York Center
12:52PM 41.6161 -76.0094 286° West 346 398 39,900 480 Climbing New York Center
12:53PM 41.6356 -76.1386 281° West 346 398 40,400 480 Climbing New York Center
12:54PM 41.6544 -76.2708 281° West 358 412 40,900 60 Climbing New York Center
12:56PM 41.6710 -76.4771 276° West  Level FlightAware Approximate
01:03PM 41.7928 -77.5414 280° West  Level FlightAware Approximate
01:04PM 41.8120 -77.6932 280° West  Level FlightAware Approximate
01:05PM 41.8309 -77.8451 280° West  Level FlightAware Approximate
01:06PM 41.8497 -77.9971 279° West  Level FlightAware Approximate
01:07PM 41.8682 -78.1492 279° West  Level FlightAware Approximate
01:08PM 41.8866 -78.3014 279° West  Level FlightAware Approximate
01:09PM 41.9047 -78.4536 279° West  Level FlightAware Approximate
01:10PM 41.9227 -78.6060 279° West  Level FlightAware Approximate
01:11PM 41.9404 -78.7584 279° West  Level FlightAware Approximate
01:12PM 41.9579 -78.9109 279° West  Level FlightAware Approximate
01:13PM 41.9753 -79.0635 279° West  Level FlightAware Approximate
01:14PM 41.9924 -79.2162 279° West  Level FlightAware Approximate
01:15PM 42.0093 -79.3690 279° West  Level FlightAware Approximate
01:15PM 42.0083 -79.1614 278° West 394 453 43,000  Level Cleveland Center
01:16PM 42.0261 -79.5219 278° West  Level FlightAware Approximate
01:16PM 42.0269 -79.3356 278° West 396 456 43,000  Level Cleveland Center
01:17PM 42.0426 -79.6748 278° West  Level FlightAware Approximate
01:17PM 42.0422 -79.4806 278° West 397 457 43,000  Level Cleveland Center
01:18PM 42.0589 -79.8278 278° West  Level FlightAware Approximate
01:18PM 42.0581 -79.6267 278° West 397 457 43,000  Level Cleveland Center
01:19PM 42.0751 -79.9809 278° West  Level FlightAware Approximate
01:19PM 42.0731 -79.7744 278° West 402 463 43,000  Level Cleveland Center
01:20PM 42.0910 -80.1340 278° West  Level FlightAware Approximate
01:20PM 42.0881 -79.9217 278° West 401 461 43,000  Level Cleveland Center
01:21PM 42.1039 -80.0822 278° West 403 464 43,000  Level Cleveland Center
01:22PM 42.1192 -80.2328 278° West 403 464 43,000  Level Cleveland Center
01:23PM 42.1342 -80.3825 278° West 402 463 43,000  Level Cleveland Center
01:24PM 42.1486 -80.5317 277° West 400 460 43,000  Level Cleveland Center
01:25PM 42.1625 -80.6808 277° West 399 459 43,000  Level Cleveland Center
01:26PM 42.1775 -80.8314 278° West 402 463 43,000  Level Cleveland Center
01:27PM 42.1942 -81.0050 277° West 399 459 43,000  Level Cleveland Center
01:28PM 42.2078 -81.1542 277° West 399 459 43,000  Level Cleveland Center
01:29PM 42.2203 -81.3033 277° West 398 458 43,000  Level Cleveland Center
01:30PM 42.2347 -81.4536 277° West 402 463 43,000  Level Cleveland Center
01:31PM 42.2475 -81.6028 277° West 400 460 43,000  Level Cleveland Center
01:32PM 42.2608 -81.7544 277° West 403 464 43,000  Level Cleveland Center
01:33PM 42.2739 -81.9053 277° West 403 464 43,000  Level Cleveland Center
01:34PM 42.2861 -82.0556 276° West 402 463 43,000  Level Cleveland Center
01:35PM 42.3011 -82.2247 277° West 402 463 43,000  Level Cleveland Center
01:36PM 42.3133 -82.3731 276° West 399 459 43,000  Level Cleveland Center
01:37PM 42.3250 -82.5211 276° West 399 459 43,000  Level Cleveland Center
01:38PM 42.3356 -82.6678 276° West 395 455 43,000  Level Cleveland Center
01:39PM 42.3483 -82.8139 277° West 393 452 43,000  Level Cleveland Center
01:40PM 42.3586 -82.9633 275° West 398 458 43,000  Level Cleveland Center
01:41PM 42.3697 -83.1106 276° West 398 458 43,000  Level Cleveland Center
01:42PM 42.3822 -83.2744 276° West 395 455 43,000  Level Cleveland Center
01:43PM 42.3942 -83.4242 276° West 397 457 43,000  Level Cleveland Center
01:44PM 42.4047 -83.5861 275° West 402 463 43,000  Level Cleveland Center
01:45PM 42.4144 -83.7269 275° West 402 463 43,000  Level Cleveland Center
01:46PM 42.4250 -83.8761 276° West 403 464 43,000  Level Cleveland Center
01:47PM 42.4375 -84.0572 275° West 406 467 43,000  Level Cleveland Center
01:49PM 42.4472 -84.2067 275° West 401 461 43,000  Level Cleveland Center
01:50PM 42.4581 -84.3575 276° West 404 465 43,000  Level Cleveland Center
01:50PM 42.4636 -84.4747 274° West 405 466 43,000  Level Chicago Center
01:51PM 42.4744 -84.6247 276° West 403 464 43,000  Level Chicago Center
01:52PM 42.4831 -84.7758 274° West 402 463 43,000  Level Chicago Center
01:53PM 42.4939 -84.9581 275° West 404 465 43,000  Level Chicago Center
01:54PM 42.5031 -85.1100 275° West 405 466 43,000  Level Chicago Center
01:56PM 42.5108 -85.2642 274° West 410 472 43,000  Level Chicago Center
01:57PM 42.5189 -85.4181 274° West 411 473 43,000  Level Chicago Center
01:58PM 42.5275 -85.5742 274° West 414 476 43,000  Level Chicago Center
01:59PM 42.5356 -85.7289 274° West 411 473 43,000  Level Chicago Center
02:00PM 42.5439 -85.8853 274° West 414 476 43,000  Level Chicago Center
02:01PM 42.5519 -86.0431 274° West 418 481 43,000  Level Chicago Center
02:02PM 42.5589 -86.2017 273° West 418 481 43,000  Level Chicago Center
02:03PM 42.5675 -86.3889 274° West 413 475 43,000  Level Chicago Center
02:04PM 42.5739 -86.5469 273° West 416 479 43,000  Level Chicago Center
02:05PM 42.5814 -86.7025 274° West 415 478 43,000  Level Chicago Center
02:06PM 42.5878 -86.8589 273° West 414 476 43,000  Level Chicago Center
02:07PM 42.5942 -87.0161 273° West 418 481 43,000  Level Chicago Center
02:08PM 42.6006 -87.1694 273° West 410 472 43,000  Level Chicago Center
02:09PM 42.6064 -87.3272 273° West 417 480 43,000  Level Chicago Center
02:10PM 42.6125 -87.4978 273° West 415 478 43,000  Level Chicago Center
02:11PM 42.6183 -87.6567 273° West 419 482 43,000  Level Chicago Center
02:12PM 42.6236 -87.8139 273° West 416 479 43,000  Level Chicago Center
02:13PM 42.6289 -87.9692 273° West 413 475 43,000 240 Level Chicago Center
02:14PM 42.6344 -88.1575 272° West 415 478 43,500 420 Climbing Chicago Center
02:15PM 42.6389 -88.3103 272° West 408 470 43,900 480 Climbing Chicago Center
02:16PM 42.6431 -88.4597 272° West 400 460 44,500 480 Climbing Chicago Center
02:17PM 42.6472 -88.6072 272° West 393 452 45,000 240 Climbing Chicago Center
02:18PM 42.6508 -88.7533 272° West 388 447 45,000  Level Chicago Center
02:19PM 42.6547 -88.9036 272° West 394 453 45,000  Level Chicago Center
02:20PM 42.6578 -89.0542 272° West 398 458 45,000  Level Chicago Center
02:21PM 42.6614 -89.2075 272° West 404 465 45,000  Level Chicago Center
02:22PM 42.6656 -89.3919 272° West 408 470 45,000  Level Chicago Center
02:23PM 42.6681 -89.5444 271° West 406 467 45,000  Level Chicago Center
02:24PM 42.6717 -89.6978 272° West 406 467 45,000  Level Chicago Center
02:25PM 42.6731 -89.8508 271° West 406 467 45,000  Level Chicago Center
02:26PM 42.6764 -90.0072 272° West 408 470 45,000  Level Chicago Center
02:27PM 42.6756 -90.1622 270° West 414 476 45,000  Level Chicago Center
02:28PM 42.6783 -90.3147 271° West 410 472 45,000  Level Chicago Center
02:29PM 42.6806 -90.4997 271° West 411 473 45,000  Level Chicago Center
02:31PM 42.6831 -90.6528 271° West 411 473 45,000  Level Chicago Center
02:32PM 42.6836 -90.8072 270° West 411 473 45,000  Level Chicago Center
02:33PM 42.6858 -90.9619 271° West 413 475 45,000  Level Chicago Center
02:34PM 42.6869 -91.1186 271° West 418 481 45,000  Level Chicago Center
02:35PM 42.6878 -91.2736 270° West 415 478 45,000  Level Chicago Center
02:36PM 42.6872 -91.4617 270° West 416 479 45,000  Level Chicago Center
02:37PM 42.6864 -91.6200 270° West 411 473 45,000  Level Chicago Center
02:38PM 42.6872 -91.7814 270° West 417 480 45,000  Level Chicago Center
02:39PM 42.6867 -91.9372 270° West 414 476 45,000  Level Chicago Center
02:40PM 42.6853 -92.0936 269° West 416 479 45,000  Level Chicago Center
02:41PM 42.6847 -92.2525 270° West 421 484 45,000  Level Chicago Center
02:42PM 42.6825 -92.4114 269° West 422 486 45,000  Level Chicago Center
02:44PM 42.6782 -92.5946 268° West  Level FlightAware Approximate
02:49PM 42.6653 -93.5797 268° West 417 480 45,000  Level Chicago Center
02:50PM 42.6614 -93.7358 268° West 416 479 45,000  Level Chicago Center
02:51PM 42.6572 -93.6781 269° West  Level FlightAware Approximate
02:51PM 42.6581 -93.8883 268° West 412 474 45,000  Level Chicago Center
02:52PM 42.6544 -93.8329 269° West  Level FlightAware Approximate
02:52PM 42.6606 -94.0433 271° West 412 474 45,000  Level Chicago Center
02:53PM 42.6514 -93.9876 269° West  Level FlightAware Approximate
02:53PM 42.6581 -94.1967 269° West 410 472 45,000  Level Chicago Center
02:54PM 42.6481 -94.1424 268° West  Level FlightAware Approximate
02:55PM 42.6447 -94.2971 268° West  Level FlightAware Approximate
02:55PM 42.6536 -94.4442 269° West 412 474 45,000  Level Minneapolis Center
02:56PM 42.6494 -94.6014 268° West 414 476 45,000  Level Minneapolis Center
02:57PM 42.6447 -94.7442 267° West 409 471 45,000  Level Minneapolis Center
02:58PM 42.6419 -94.9033 269° West 418 481 45,000  Level Minneapolis Center
02:59PM 42.6358 -95.0906 268° West 415 478 45,000  Level Minneapolis Center
03:00PM 42.6308 -95.2469 268° West 416 479 45,000  Level Minneapolis Center
03:01PM 42.6264 -95.4028 268° West 416 479 45,000  Level Minneapolis Center
03:02PM 42.6211 -95.5603 267° West 418 481 45,000  Level Minneapolis Center
03:03PM 42.6158 -95.7178 267° West 419 482 45,000  Level Minneapolis Center
03:04PM 42.6086 -95.9006 267° West 409 471 45,000  Level Minneapolis Center
03:05PM 42.6028 -96.0589 267° West 415 478 45,000  Level Minneapolis Center
03:06PM 42.5964 -96.2158 267° West 418 481 45,000  Level Minneapolis Center
03:07PM 42.5900 -96.3747 267° West 420 483 45,000  Level Minneapolis Center
03:08PM 42.5833 -96.5325 267° West 420 483 45,000  Level Minneapolis Center
03:09PM 42.5756 -96.6894 266° West 419 482 45,000  Level Minneapolis Center
03:10PM 42.5694 -96.8450 267° West 417 480 45,000  Level Minneapolis Center
03:11PM 42.5622 -97.0033 267° West 420 483 45,000  Level Minneapolis Center
03:12PM 42.5536 -97.1906 266° West 418 481 45,000  Level Minneapolis Center
03:13PM 42.5453 -97.3475 266° West 419 482 45,000  Level Minneapolis Center
03:14PM 42.5378 -97.5064 266° West 422 486 45,000  Level Minneapolis Center
03:15PM 42.5286 -97.6642 266° West 421 484 45,000  Level Minneapolis Center
03:16PM 42.5211 -97.8250 266° West 427 491 45,000  Level Minneapolis Center
03:17PM 42.5117 -97.9881 266° West 424 488 45,000  Level Minneapolis Center
03:18PM 42.5019 -98.1469 265° West 424 488 45,000  Level Minneapolis Center
03:19PM 42.4931 -98.3056 266° West 423 487 45,000  Level Minneapolis Center
03:20PM 42.4839 -98.4633 266° West 422 486 45,000  Level Minneapolis Center
03:21PM 42.4719 -98.6542 265° West 424 488 45,000  Level Minneapolis Center
03:22PM 42.4658 -98.8139 267° West 424 488 45,000  Level Minneapolis Center
03:23PM 42.4606 -98.9728 267° West 425 489 45,000  Level Minneapolis Center
03:24PM 42.4547 -99.1303 267° West 421 484 45,000  Level Minneapolis Center
03:25PM 42.4486 -99.2894 267° West 423 487 45,000  Level Denver Center
03:26PM 42.4425 -99.4489 267° West 426 490 45,000  Level Denver Center
03:27PM 42.4361 -99.6072 267° West 422 486 45,000  Level Denver Center
03:28PM 42.4297 -99.7658 267° West 424 488 45,000  Level Denver Center
03:29PM 42.4219 -99.9311 266° West 427 491 45,000  Level Denver Center
03:31PM 42.4144 -100.1081 267° West 425 489 45,000  Level Denver Center
03:32PM 42.4078 -100.2606 267° West 425 489 45,000  Level Denver Center
03:33PM 42.4011 -100.4139 267° West 427 491 45,000  Level Denver Center
03:34PM 42.3914 -100.5928 266° West 429 494 45,000  Level Denver Center
03:35PM 42.3839 -100.7464 266° West 429 494 45,000  Level Denver Center
03:36PM 42.3756 -100.9256 266° West 429 494 45,000  Level Denver Center
03:37PM 42.3669 -101.0808 266° West 433 498 45,000  Level Denver Center
03:38PM 42.3572 -101.2594 266° West 429 494 45,000  Level Denver Center
03:39PM 42.3494 -101.4147 266° West 433 498 45,000  Level Denver Center
03:40PM 42.3389 -101.5711 265° West 437 503 45,000  Level Denver Center
03:41PM 42.3286 -101.7506 266° West 432 497 45,000  Level Denver Center
03:42PM 42.3186 -101.9061 265° West 439 505 45,000  Level Denver Center
03:43PM 42.3072 -102.0881 265° West 436 502 45,000  Level Denver Center
03:44PM 42.2978 -102.2444 265° West 436 502 45,000  Level Denver Center
03:45PM 42.2847 -102.4281 265° West 440 506 45,000  Level Denver Center
03:46PM 42.2758 -102.5825 266° West 435 501 45,000  Level Denver Center
03:47PM 42.2653 -102.7378 265° West 435 501 45,000  Level Denver Center
03:48PM 42.2533 -102.9194 265° West 435 501 45,000  Level Denver Center
03:49PM 42.2419 -103.0736 264° West 433 498 45,000  Level Denver Center
03:50PM 42.2286 -103.2544 264° West 432 497 45,000  Level Denver Center
03:51PM 42.2175 -103.4089 265° West 432 497 45,000  Level Denver Center
03:52PM 42.2036 -103.5894 264° West 433 498 45,000  Level Denver Center
03:53PM 42.1928 -103.7439 265° West 432 497 45,000  Level Denver Center
03:54PM 42.1803 -103.9003 264° West 435 501 45,000  Level Denver Center
03:55PM 42.1658 -104.0822 264° West 438 504 45,000  Level Denver Center
03:56PM 42.1522 -104.2389 263° West 439 505 45,000  Level Denver Center
03:57PM 42.1400 -104.3961 264° West 440 506 45,000  Level Denver Center
03:58PM 42.1247 -104.5778 264° West 435 501 45,000  Level Denver Center
03:59PM 42.1119 -104.7322 264° West 431 496 45,000  Level Denver Center
04:00PM 42.0964 -104.9125 263° West 432 497 45,000  Level Denver Center
04:01PM 42.0822 -105.0669 263° West 433 498 45,000  Level Denver Center
04:02PM 42.0703 -105.2467 265° West 432 497 45,000  Level Denver Center
04:03PM 42.0636 -105.4033 267° West 436 502 45,000  Level Denver Center
04:04PM 42.0567 -105.5558 267° West 431 496 45,000  Level Denver Center
04:05PM 42.0478 -105.7347 266° West 429 494 45,000  Level Denver Center
04:06PM 42.0406 -105.8908 266° West 434 499 45,000  Level Denver Center
04:07PM 42.0328 -106.0742 267° West 437 503 45,000  Level Denver Center
04:08PM 42.0244 -106.2306 266° West 439 505 45,000  Level Denver Center
04:10PM 42.0158 -106.3872 266° West 439 505 45,000  Level Denver Center
04:11PM 42.0075 -106.5592 266° West 442 509 45,000  Level Denver Center
04:12PM 41.9967 -106.7417 265° West 439 505 45,000  Level Denver Center
04:13PM 41.9889 -106.8992 266° West 441 507 45,000  Level Denver Center
04:14PM 41.9778 -107.0814 265° West 440 506 45,000  Level Denver Center
04:15PM 41.9694 -107.2389 266° West 441 507 45,000  Level Denver Center
04:16PM 41.9606 -107.3950 266° West 440 506 45,000  Level Denver Center
04:17PM 41.9486 -107.5778 265° West 442 509 45,000  Level Denver Center
04:17PM 41.9417 -107.6569 263° West 443 510 45,000  Level Salt Lake Center
04:18PM 41.9328 -107.8131 266° West 439 505 45,000  Level Salt Lake Center
04:19PM 41.9206 -107.9967 265° West 442 509 45,000  Level Salt Lake Center
04:20PM 41.9103 -108.1556 265° West 448 516 45,000  Level Salt Lake Center
04:21PM 41.8981 -108.3375 265° West 441 507 45,000  Level Salt Lake Center
04:22PM 41.8867 -108.4936 264° West 441 507 45,000  Level Salt Lake Center
04:23PM 41.8756 -108.6500 265° West 442 509 45,000  Level Salt Lake Center
04:24PM 41.8614 -108.8314 264° West 441 507 45,000  Level Salt Lake Center
04:25PM 41.8503 -108.9875 265° West 442 509 45,000  Level Salt Lake Center
04:26PM 41.8361 -109.1689 264° West 441 507 45,000  Level Salt Lake Center
04:27PM 41.8247 -109.3233 264° West 440 506 45,000  Level Salt Lake Center
04:28PM 41.8094 -109.5056 264° West 443 510 45,000  Level Salt Lake Center
04:29PM 41.7978 -109.6592 264° West 438 504 45,000  Level Salt Lake Center
04:30PM 41.7819 -109.8403 263° West 441 507 45,000  Level Salt Lake Center
04:32PM 41.7697 -109.9933 264° West 436 502 45,000  Level Salt Lake Center
04:33PM 41.7558 -110.1483 263° West 439 505 45,000  Level Salt Lake Center
04:34PM 41.7411 -110.3272 264° West 435 501 45,000  Level Salt Lake Center
04:35PM 41.7269 -110.4814 263° West 436 502 45,000  Level Salt Lake Center
04:36PM 41.7103 -110.6594 263° West 434 499 45,000  Level Salt Lake Center
04:37PM 41.6956 -110.8128 263° West 435 501 45,000  Level Salt Lake Center
04:38PM 41.6817 -110.9714 263° West 434 499 45,000  Level Salt Lake Center
04:39PM 41.6661 -111.1311 263° West 435 501 45,000  Level Salt Lake Center
04:40PM 41.6506 -111.2897 263° West 434 499 45,000  Level Salt Lake Center
04:41PM 41.6325 -111.4811 263° West 436 502 45,000  Level Salt Lake Center
04:42PM 41.6175 -111.6386 263° West 432 497 45,000  Level Salt Lake Center
04:43PM 41.6022 -111.7939 263° West 428 493 45,000  Level Salt Lake Center
04:44PM 41.5861 -111.9508 262° West 431 496 45,000  Level Salt Lake Center
04:45PM 41.5694 -112.1072 262° West 430 495 45,000  Level Salt Lake Center
04:46PM 41.5542 -112.2636 263° West 429 494 45,000  Level Salt Lake Center
04:47PM 41.5372 -112.4200 262° West 429 494 45,000  Level Salt Lake Center
04:48PM 41.5167 -112.6061 262° West 426 490 45,000  Level Salt Lake Center
04:49PM 41.4978 -112.7619 261° West 428 493 45,000  Level Salt Lake Center
04:50PM 41.4789 -112.9175 261° West 428 493 45,000  Level Salt Lake Center
04:51PM 41.4581 -113.0728 260° West 427 491 45,000  Level Salt Lake Center
04:52PM 41.4244 -113.2239 254° West 426 490 45,000  Level Salt Lake Center
04:53PM 41.3844 -113.3750 251° West 432 497 45,000  Level Salt Lake Center
04:54PM 41.3461 -113.5258 251° West 433 498 45,000  Level Salt Lake Center
04:55PM 41.3008 -113.7061 252° West 430 495 45,000  Level Salt Lake Center
04:56PM 41.2614 -113.8569 251° West 433 498 45,000  Level Salt Lake Center
04:57PM 41.2233 -114.0075 251° West 432 497 45,000  Level Salt Lake Center
04:58PM 41.1847 -114.1581 251° West 432 497 45,000  Level Salt Lake Center
04:59PM 41.1450 -114.3081 251° West 432 497 45,000  Level Salt Lake Center
05:00PM 41.1050 -114.4589 251° West 434 499 45,000  Level Salt Lake Center
05:01PM 41.0664 -114.6106 251° West 435 501 45,000  Level Salt Lake Center
05:02PM 41.0242 -114.7706 251° West 436 502 45,000  Level Salt Lake Center
05:03PM 40.9778 -114.9394 250° West 436 502 45,000  Level Salt Lake Center
05:04PM 40.9358 -115.0844 249° West 440 506 45,000  Level Salt Lake Center
05:05PM 40.8972 -115.2283 250° West 436 502 45,000  Level Salt Lake Center
05:06PM 40.8503 -115.3972 250° West 437 503 45,000  Level Salt Lake Center
05:07PM 40.8108 -115.5428 250° West 439 505 45,000  Level Salt Lake Center
05:08PM 40.7653 -115.7125 251° West 440 506 45,000  Level Salt Lake Center
05:09PM 40.7236 -115.8572 249° West 440 506 45,000  Level Salt Lake Center
05:10PM 40.6836 -116.0033 250° West 441 507 45,000  Level Salt Lake Center
05:11PM 40.6358 -116.1739 250° West 444 511 45,000  Level Salt Lake Center
05:13PM 40.5950 -116.3206 250° West 446 513 45,000  Level Salt Lake Center
05:14PM 40.5464 -116.4903 249° West 445 512 45,000  Level Salt Lake Center
05:15PM 40.5047 -116.6356 249° West 444 511 45,000  Level Salt Lake Center
05:16PM 40.4628 -116.7786 249° West 445 512 45,000  Level Salt Lake Center
05:17PM 40.4092 -116.9586 249° West 443 510 45,000  Level Salt Lake Center
05:18PM 40.3669 -117.1108 250° West 448 516 45,000  Level Salt Lake Center
05:19PM 40.3244 -117.2550 249° West 446 513 45,000  Level Salt Lake Center
05:20PM 40.2739 -117.4219 248° West 444 511 45,000  Level Salt Lake Center
05:21PM 40.2311 -117.5656 249° West 442 509 45,000  Level Salt Lake Center
05:22PM 40.1814 -117.7342 249° West 444 511 45,000  Level Salt Lake Center
05:23PM 40.1369 -117.8783 248° West 447 514 45,000  Level Salt Lake Center
05:23PM 40.1058 -117.9853 249° West 446 513 45,000  Level Oakland Center
05:24PM 40.0608 -118.1358 249° West 447 514 45,000  Level Oakland Center
05:25PM 40.0150 -118.2847 248° West 445 512 45,000  Level Oakland Center
05:27PM 39.9683 -118.4350 248° West 446 513 45,000  Level Oakland Center
05:28PM 39.9217 -118.5861 248° West 451 519 45,000  Level Oakland Center
05:29PM 39.8761 -118.7361 248° West 452 520 45,000  Level Oakland Center
05:30PM 39.8281 -118.8858 247° West 453 521 45,000 -1,140 Level Oakland Center
05:31PM 39.7700 -119.0678 248° West 457 526 42,800 -2,040 Descending Oakland Center
05:32PM 39.7228 -119.2183 248° West 455 524 40,900 -1,920 Descending Oakland Center
05:33PM 39.6750 -119.3672 247° West 452 520 38,900 -2,040 Descending Oakland Center
05:34PM 39.6281 -119.5169 248° West 450 518 36,800 -1,980 Descending Oakland Center
05:35PM 39.5786 -119.6722 248° West 467 537 34,900 -1,980 Descending Oakland Center
05:36PM 39.5267 -119.8308 247° West 478 550 32,800 -2,160 Descending Oakland Center
05:37PM 39.4744 -119.9883 247° West 479 551 30,600 -2,220 Descending Oakland Center
05:38PM 39.4225 -120.1542 248° West 475 547 28,300 -2,220 Descending Oakland Center
05:39PM 39.3722 -120.3072 247° West 466 536 26,100 -2,100 Descending Oakland Center
05:40PM 39.3231 -120.4561 247° West 455 524 24,100 -1,080 Descending Oakland Center
05:41PM 39.2764 -120.5931 246° West 425 489 24,000 -60 Descending Oakland Center
05:42PM 39.2297 -120.7339 247° West 426 490 24,000  Level Oakland Center
05:43PM 39.1731 -120.9036 247° West 430 495 24,000  Level Oakland Center
05:44PM 39.1258 -121.0450 247° West 431 496 24,000 -600 Level Oakland Center
05:45PM 39.0781 -121.1850 246° West 431 496 22,800 -1,380 Descending Oakland Center
05:46PM 39.0314 -121.3217 246° West 427 491 21,200 -1,620 Descending Oakland Center
05:47PM 38.9847 -121.4567 246° West 421 484 19,600 -1,620 Descending Oakland Center
05:48PM 38.9389 -121.5906 246° West 414 476 18,000 -1,560 Descending Oakland Center
05:49PM 38.8950 -121.7175 246° West 398 458 16,500 -1,560 Descending Oakland Center
05:50PM 38.8519 -121.8403 246° West 384 442 14,900 -1,620 Descending Oakland Center
05:51PM 38.8100 -121.9619 246° West 377 434 13,300 -1,440 Descending Oakland Center
05:52PM 38.7600 -122.1014 245° Southwest 363 418 12,000 -780 Descending Oakland Center
05:53PM 38.7211 -122.2139 246° West 351 404 11,800 -660 Descending Oakland Center
05:54PM 38.6828 -122.3211 245° Southwest 337 388 10,700 -1,320 Descending Oakland Center
05:55PM 38.6492 -122.4158 246° West 296 341 9,100 -1,740 Descending Oakland Center
05:56PM 38.6169 -122.5061 245° Southwest 282 325 7,200 -1,080 Descending Oakland Center
05:57PM 38.5869 -122.5939 246° West 274 315 7,000 -300 Descending Oakland Center
05:58PM 38.5942 -122.6786 276° West 262 302 6,700 -840 Descending Oakland Center
05:59PM 38.6361 -122.7433 310° West 249 287 5,300 -1,440 Descending Oakland Center
06:00PM 38.6525 -122.8172 286° West 249 287 3,800 -1,200 Descending Oakland Center
06:01PM 38.6017 -122.8619 215° Southwest 222 255 2,900 -1,140 Descending Oakland Center
06:02PM 38.5633 -122.8397 156° South 176 203 1,600 -1,260 Descending Oakland Center
06:03PM 38.5278 -122.8194 156° South 155 178 400 -1,200 Descending Oakland Center